Relevés horaires Beauvechain (Belgique)


Relevés horaires à Beauvechain - Jeudi 06 Févr. 2020
Heure UTC1 Température [°C] Vent [km/h] Hum. [%] Pres.4 [hPa] Visi. [Km] Nébu. [octa] Préc.5 [mm] Cond.
2m. Res. Ros. Dir.2 Vit. Moy. Raf.3
23:00 2.0 2.0 -- E 3.7 -- 5.6 -- 1030.5(-0.5/3h) 6 -- -- --
22:00 2.6 2.6 0.2 NNO 1.9 -- 3.7 84 1030.5(-0.9/3h) 8 -- -- --
21:00 3.4 3.4 0.6 NNO 1.9 -- 3.7 82 1030.5(-1.0/3h) 8 -- -- --
20:00 3.7 3.7 1.0 NNO 1.9 -- 3.7 82 1031(-0.7/3h) 8 -- -- --
19:00 4.3 4.3 1.1 NNO 1.9 -- 1.9 80 1031.4(-0.3/3h) 9 -- -- --
18:00 4.6 4.6 1.6 NNO 1.9 -- 5.6 81 1031.5(-0.2/3h) 11 -- trace/12h
NA
17:00 5.1 5.1 1.5 NNO 1.9 -- 5.6 78 1031.5(-0.5/3h) 10 0/8 -- --
16:00 6.1 6.1 1.6 ESE 3.7 -- 5.6 73 1031.5(-1.1/3h) 20 1/8 -- --
15:00 6.6 6.6 1.3 NNO 1.9 -- 3.7 69 1031.7(-1.2/3h) 20 1/8 -- --
14:00 6.3 6.3 1.0 NNO 1.9 -- 3.7 69 1032(-1.2/3h) 20 1/8 -- --
13:00 6.0 6.0 0.8 NNO 1.9 -- 1.9 69 1032.7(-0.9/3h) 18 1/8 -- --
12:00 5.8 5.8 1.3 NNO 1.9 -- 5.6 73 1033(-0.6/3h) 15 1/8 -- --
11:00 5.7 5.7 1.6 NNO 1.9 -- 5.6 75 1033.5(0.0/3h) 15 0/8 -- --
10:00 4.7 4.7 1.3 OSO 3.7 -- 5.6 79 1033.7(0.1/3h) 10 0/8 -- --
09:00 2.6 2.6 0.6 NNO 1.9 -- 5.6 87 1033.9(0.0/3h) 8 0/8 -- --
08:00 1.2 1.2 -0.1 NNO 1.9 -- 5.6 91 1033.7(-0.6/3h) 6 0/8 -- --
07:00 1.1 1.1 -0.3 SO 3.7 -- 5.6 90 1033.9(-0.5/3h) 6 0/8 -- --
06:00 1.7 0.1 -0.2 SSO 5.6 -- 5.6 87 1034(-1.0/3h) 8 -- -- --
05:00 2.0 2.0 -- SO 3.7 -- 5.6 -- 1034.2(-0.9/3h) 9 -- -- --
04:00 2.1 0.5 0.1 SO 5.6 -- 5.6 87 1034.4(-0.8/3h) 8 -- -- --
03:00 2.1 2.1 0.6 SO 3.7 -- 5.6 90 1035(-0.7/3h) 6 -- -- --
02:00 2.9 2.9 0.5 NNO 1.9 -- 5.6 84 1035.2(-1.4/3h) 9 -- -- --
01:00 3.7 3.7 0.8 SSO 3.7 -- 5.6 81 1035.2(-1.7/3h) 12 -- -- --
00:00 4.4 4.4 0.6 S 3.7 -- 5.6 76 1035.7(-1.1/3h) 18 -- -- --

1 Coordinated Universal Time. Actuellement il est 18:00 locale et 16:00 UTC.

2 Le vent souffle depuis la direction indiquée vers la direction oposée.

3 Les rafales max. sont disponible 40 min après l'heure du relevé.

4 Pour les stations d'altitude (plus de 600m) le géopotentiel du niveau le plus proche de la pression obligatoire est indiqué.

5 Les stations disposant d'un diffuseur peuvent indiquer "trace". Cela signifie que des précipitations ont touchés le sol mais que la quantité est inférieure à 0.1 mm.

Récapitulatif de la journée
Température [°C] Vent [km/h] Ensoleillement4 [h] Precipitations totale5 [mm] Pression [Hpa]
Min1 Max.2 Moy.3 Max. Min Max.
1.5 7.0 0 5.6 0 h 0 min 0 1030.5 1035.7

1 Température minimale relevée entre 18:00 UTC la veille et 18:00 UTC le jour donné.

2 Température maximale relevée entre 06:00 UTC le jour donné et 06:00 UTC le lendemain.

3 Vent moyen de la journée basé sur les relevés horaires.

4 Ensoleillement en heures relevé entre 06:00 UTC la veille et 06:00 UTC le jour donné.

5 Précipitations totales tombées entre 06:00 UTC la jour donné et 06:00 UTC le lendemain.

Graphiques horaires